Time;durP1;ratioP1;P1;durP2;ratioP2;P2;SDS_P1;SDS_P2;PMS_P1;PMS_P2;Temp;Humidity;BMP_temperature;BMP_pressure;BME280_temperature;BME280_humidity;BME280_pressure;Samples;Min_cycle;Max_cycle;Signal;HPM_P1;HPM_P2
2022/08/17 00:00:18;;;;;;;;;;;;;;;21.12;59.55;99190.75;1087004;54;19961;-79
2022/08/17 00:01:23;;;;;;;;;;;;;;;21.22;58.96;99179.28;1087299;54;19957;-79
2022/08/17 00:02:27;;;;;;;;;;;;;;;21.30;58.75;99174.34;1087196;54;19946;-78
2022/08/17 00:03:32;;;;;;;;;;;;;;;21.39;58.64;99179.41;1087332;54;20069;-78
2022/08/17 00:04:34;;;;;;;;;;;;;;;21.45;58.68;99182.03;1087043;54;19946;-78
2022/08/17 00:05:37;;;;;;;;;;;;;;;21.49;57.80;99166.88;1086966;54;20438;-79
2022/08/17 00:06:40;;;;;;;;;;;;;;;21.52;57.69;99173.75;1087109;54;19927;-79
2022/08/17 00:07:42;;;;;;;;;;;;;;;21.57;57.54;99173.84;1087078;54;19954;-78
2022/08/17 00:08:47;;;;;;;;;;;;;;;21.61;57.49;99176.94;1087209;54;20010;-79
2022/08/17 00:09:49;;;;;;;;;;;;;;;21.59;57.52;99171.75;1086906;54;20489;-79
2022/08/17 00:10:53;;;;;;;;;;;;;;;21.63;57.49;99177.53;1087457;54;19947;-80
2022/08/17 00:11:55;;;;;;;;;;;;;;;21.64;57.20;99171.03;1087011;54;19964;-77
2022/08/17 00:12:59;;;;;;;;;;;;;;;21.65;56.90;99170.78;1087279;54;20187;-78
2022/08/17 00:14:05;;;;;;;;;;;;;;;21.66;57.04;99168.91;1086863;54;19958;-79
2022/08/17 00:15:07;;;;;;;;;;;;;;;21.68;57.05;99171.38;1086852;54;19950;-76
2022/08/17 00:16:13;;;;;;;;;;;;;;;21.69;56.60;99173.84;1087275;54;19950;-77
2022/08/17 00:17:14;;;;;;;;;;;;;;;21.69;56.78;99162.97;1087079;54;19975;-77
2022/08/17 00:18:20;;;;;;;;;;;;;;;21.71;56.78;99165.47;1086974;54;19950;-77
2022/08/17 00:19:22;;;;;;;;;;;;;;;21.73;56.90;99160.59;1086998;54;19973;-76
2022/08/17 00:20:26;;;;;;;;;;;;;;;21.74;56.81;99171.25;1086813;54;19998;-78
2022/08/17 00:21:27;;;;;;;;;;;;;;;21.75;56.58;99169.34;1087043;54;19958;-77
2022/08/17 00:22:31;;;;;;;;;;;;;;;21.74;56.63;99160.38;1086793;54;19938;-77
2022/08/17 00:23:32;;;;;;;;;;;;;;;21.74;56.84;99160.38;1087118;54;19952;-77
2022/08/17 00:24:36;;;;;;;;;;;;;;;21.73;56.77;99157.88;1087110;54;20503;-77
2022/08/17 00:25:38;;;;;;;;;;;;;;;21.76;56.54;99163.69;1087169;54;19957;-77
2022/08/17 00:26:43;;;;;;;;;;;;;;;21.76;56.77;99160.13;1087089;54;19975;-78
2022/08/17 00:27:45;;;;;;;;;;;;;;;21.76;56.64;99173.72;1086998;54;19954;-77
2022/08/17 00:28:49;;;;;;;;;;;;;;;21.76;56.53;99158.25;1086932;54;19954;-78
2022/08/17 00:29:50;;;;;;;;;;;;;;;21.78;56.60;99166.97;1086986;54;19950;-77
2022/08/17 00:30:55;;;;;;;;;;;;;;;21.80;56.33;99158.59;1086926;54;19992;-78
2022/08/17 00:31:57;;;;;;;;;;;;;;;21.78;56.55;99158.00;1086779;54;19946;-77
2022/08/17 00:33:01;;;;;;;;;;;;;;;21.81;56.59;99160.25;1086957;54;19953;-78
2022/08/17 00:34:05;;;;;;;;;;;;;;;21.79;56.84;99165.09;1087076;54;19947;-77
2022/08/17 00:35:11;;;;;;;;;;;;;;;21.72;57.39;99167.13;1087002;54;20446;-77
2022/08/17 00:36:15;;;;;;;;;;;;;;;21.71;56.86;99171.72;1087382;54;19947;-78
2022/08/17 00:37:16;;;;;;;;;;;;;;;21.77;57.00;99172.66;1087922;54;19985;-77
2022/08/17 00:38:20;;;;;;;;;;;;;;;21.78;57.07;99168.88;1088048;54;20688;-79
2022/08/17 00:39:21;;;;;;;;;;;;;;;21.70;57.48;99163.81;1088017;54;19942;-78
2022/08/17 00:40:25;;;;;;;;;;;;;;;21.73;56.98;99161.44;1087799;54;19953;-79
2022/08/17 00:41:26;;;;;;;;;;;;;;;21.73;57.01;99163.31;1091635;46;19958;-78
2022/08/17 00:42:30;;;;;;;;;;;;;;;21.64;57.63;99157.44;1088529;39;20500;-77
2022/08/17 00:43:34;;;;;;;;;;;;;;;21.55;58.16;99161.56;1087850;54;19938;-77
2022/08/17 00:44:37;;;;;;;;;;;;;;;21.50;58.43;99159.56;1086791;54;19958;-76
2022/08/17 00:45:38;;;;;;;;;;;;;;;21.44;58.60;99161.34;1085911;54;19954;-76
2022/08/17 00:46:43;;;;;;;;;;;;;;;21.40;58.78;99160.13;1085897;54;19938;-77
2022/08/17 00:47:44;;;;;;;;;;;;;;;21.30;58.98;99157.22;1085310;54;19950;-77
2022/08/17 00:48:49;;;;;;;;;;;;;;;21.34;58.59;99155.66;1085567;54;19939;-76
2022/08/17 00:49:53;;;;;;;;;;;;;;;21.30;58.50;99157.22;1086117;39;20361;-77
2022/08/17 00:50:59;;;;;;;;;;;;;;;21.30;58.45;99149.88;1084892;54;19951;-75
2022/08/17 00:52:07;;;;;;;;;;;;;;;21.31;57.87;99161.56;1085409;54;19958;-76
2022/08/17 00:53:12;;;;;;;;;;;;;;;21.32;57.98;99155.91;1085353;54;19950;-76
2022/08/17 00:54:14;;;;;;;;;;;;;;;21.34;57.82;99148.34;1085578;54;19969;-76
2022/08/17 00:55:19;;;;;;;;;;;;;;;21.34;57.74;99151.06;1085761;54;19946;-76
2022/08/17 00:56:23;;;;;;;;;;;;;;;21.32;57.57;99153.19;1086490;54;19945;-76
2022/08/17 00:57:29;;;;;;;;;;;;;;;21.27;58.03;99150.34;1086437;54;19939;-76
2022/08/17 00:58:31;;;;;;;;;;;;;;;21.28;57.75;99143.84;1085124;54;19938;-76
2022/08/17 00:59:36;;;;;;;;;;;;;;;21.30;57.49;99143.63;1085142;54;19970;-77
2022/08/17 01:00:39;;;;;;;;;;;;;;;21.31;57.60;99153.41;1085026;54;19946;-77
2022/08/17 01:01:43;;;;;;;;;;;;;;;21.32;57.44;99146.91;1085281;54;20444;-77
2022/08/17 01:02:45;;;;;;;;;;;;;;;21.32;57.44;99142.31;1085300;47;19938;-76
2022/08/17 01:03:49;;;;;;;;;;;;;;;21.33;57.50;99149.41;1084935;54;20372;-77
2022/08/17 01:04:53;;;;;;;;;;;;;;;21.32;57.65;99144.19;1085600;54;19938;-77
2022/08/17 01:05:59;;;;;;;;;;;;;;;21.30;57.50;99139.00;1086082;46;20421;-77
2022/08/17 01:07:00;;;;;;;;;;;;;;;21.32;57.21;99136.88;1085525;54;19962;-77
2022/08/17 01:08:04;;;;;;;;;;;;;;;21.28;57.67;99146.56;1084911;54;19958;-76
2022/08/17 01:09:08;;;;;;;;;;;;;;;21.28;57.42;99141.13;1085291;54;19958;-78
2022/08/17 01:10:11;;;;;;;;;;;;;;;21.28;57.04;99143.84;1085008;54;19951;-77
2022/08/17 01:11:16;;;;;;;;;;;;;;;21.25;57.57;99140.78;1084603;54;19939;-78
2022/08/17 01:12:17;;;;;;;;;;;;;;;21.24;57.26;99142.69;1085242;54;20406;-78
2022/08/17 01:13:18;;;;;;;;;;;;;;;21.25;57.16;99141.63;1085111;54;19946;-76
2022/08/17 01:14:22;;;;;;;;;;;;;;;21.21;57.29;99139.63;1084851;54;19943;-77
2022/08/17 01:15:24;;;;;;;;;;;;;;;21.23;57.47;99146.47;1084921;54;19957;-77
2022/08/17 01:16:30;;;;;;;;;;;;;;;21.22;57.52;99142.09;1085087;54;19938;-76
2022/08/17 01:17:31;;;;;;;;;;;;;;;21.21;57.13;99140.44;1084654;54;19946;-76
2022/08/17 01:18:36;;;;;;;;;;;;;;;21.20;57.45;99146.94;1084767;54;20426;-77
2022/08/17 01:19:39;;;;;;;;;;;;;;;21.21;57.17;99142.34;1084971;54;20446;-78
2022/08/17 01:20:46;;;;;;;;;;;;;;;21.19;57.69;99151.53;1085004;54;20482;-77
2022/08/17 01:21:49;;;;;;;;;;;;;;;21.19;57.19;99151.53;1084970;54;19939;-77
2022/08/17 01:22:56;;;;;;;;;;;;;;;21.21;57.03;99153.22;1085808;39;20333;-78
2022/08/17 01:23:57;;;;;;;;;;;;;;;21.20;57.30;99141.50;1085123;54;19966;-78
2022/08/17 01:25:02;;;;;;;;;;;;;;;21.22;57.26;99144.81;1085037;54;19953;-77
2022/08/17 01:26:04;;;;;;;;;;;;;;;21.19;57.22;99148.84;1085157;54;20465;-77
2022/08/17 01:27:08;;;;;;;;;;;;;;;21.19;57.29;99153.41;1085269;54;19951;-76
2022/08/17 01:28:12;;;;;;;;;;;;;;;21.17;57.22;99139.25;1085406;39;20353;-79
2022/08/17 01:29:13;;;;;;;;;;;;;;;21.15;57.56;99144.09;1085154;39;20322;-77
2022/08/17 01:30:18;;;;;;;;;;;;;;;21.11;57.62;99142.91;1084851;54;19954;-76
2022/08/17 01:31:19;;;;;;;;;;;;;;;21.11;57.27;99141.00;1084848;54;19943;-77
2022/08/17 01:32:23;;;;;;;;;;;;;;;21.09;57.69;99142.31;1085500;39;20455;-77
2022/08/17 01:33:24;;;;;;;;;;;;;;;21.08;57.59;99140.66;1084853;54;19946;-77
2022/08/17 01:34:28;;;;;;;;;;;;;;;21.07;57.33;99144.44;1085994;47;20445;-77
2022/08/17 01:35:29;;;;;;;;;;;;;;;21.03;57.85;99149.50;1085117;54;19946;-77
2022/08/17 01:36:33;;;;;;;;;;;;;;;21.03;57.88;99144.09;1085375;39;20377;-74
2022/08/17 01:37:35;;;;;;;;;;;;;;;21.04;57.76;99149.28;1085146;39;20151;-76
2022/08/17 01:38:42;;;;;;;;;;;;;;;21.01;57.58;99157.09;1085016;54;19947;-77
2022/08/17 01:39:45;;;;;;;;;;;;;;;21.01;57.70;99149.75;1084963;54;19977;-76
2022/08/17 01:40:52;;;;;;;;;;;;;;;21.01;57.78;99149.75;1085264;54;19954;-77
2022/08/17 01:41:57;;;;;;;;;;;;;;;20.96;57.75;99146.94;1085767;54;19946;-77
2022/08/17 01:43:03;;;;;;;;;;;;;;;20.91;58.06;99145.97;1085338;54;19950;-76
2022/08/17 01:44:05;;;;;;;;;;;;;;;20.84;58.31;99157.75;1085912;39;20351;-77
2022/08/17 01:45:11;;;;;;;;;;;;;;;20.77;58.87;99150.81;1084931;54;19970;-77
2022/08/17 01:46:14;;;;;;;;;;;;;;;20.75;58.92;99152.91;1084641;54;19939;-76
2022/08/17 01:47:18;;;;;;;;;;;;;;;20.68;59.27;99153.84;1084953;54;19954;-78
2022/08/17 01:48:19;;;;;;;;;;;;;;;20.72;58.72;99159.63;1085222;47;20450;-76
2022/08/17 01:49:23;;;;;;;;;;;;;;;20.70;58.63;99159.03;1084240;54;19985;-78
2022/08/17 01:50:27;;;;;;;;;;;;;;;20.72;58.49;99155.00;1085464;39;20418;-77
2022/08/17 01:51:32;;;;;;;;;;;;;;;20.72;58.79;99160.44;1085075;54;19990;-76
2022/08/17 01:52:33;;;;;;;;;;;;;;;20.75;58.71;99158.34;1085180;54;20002;-77
2022/08/17 01:53:41;;;;;;;;;;;;;;;20.75;58.73;99152.91;1085468;54;19951;-76
2022/08/17 01:54:46;;;;;;;;;;;;;;;20.73;58.58;99151.25;1085497;54;19947;-78
2022/08/17 01:55:52;;;;;;;;;;;;;;;20.75;58.63;99156.44;1085281;54;19971;-76
2022/08/17 01:56:53;;;;;;;;;;;;;;;20.73;58.41;99159.41;1085863;39;20319;-77
2022/08/17 01:57:57;;;;;;;;;;;;;;;20.72;58.62;99155.00;1085368;54;19951;-75
2022/08/17 01:58:58;;;;;;;;;;;;;;;20.71;58.60;99157.97;1085174;54;19954;-76
2022/08/17 02:00:02;;;;;;;;;;;;;;;20.70;58.29;99153.59;1085001;54;19974;-76
2022/08/17 02:01:04;;;;;;;;;;;;;;;20.70;58.54;99161.72;1086047;39;20345;-77
2022/08/17 02:02:09;;;;;;;;;;;;;;;20.65;58.63;99159.72;1085415;54;20846;-78
2022/08/17 02:03:11;;;;;;;;;;;;;;;20.63;58.96;99161.03;1085256;54;20478;-76
2022/08/17 02:04:15;;;;;;;;;;;;;;;20.58;59.14;99167.16;1085498;54;20012;-76
2022/08/17 02:05:17;;;;;;;;;;;;;;;20.57;58.97;99173.63;1085066;54;19946;-78
2022/08/17 02:06:21;;;;;;;;;;;;;;;20.57;58.77;99162.78;1087111;39;20368;-76
2022/08/17 02:07:22;;;;;;;;;;;;;;;20.55;58.74;99160.28;1086268;39;20366;-77
2022/08/17 02:08:26;;;;;;;;;;;;;;;20.47;59.64;99163.31;1085240;54;19946;-77
2022/08/17 02:09:28;;;;;;;;;;;;;;;20.49;59.11;99163.09;1085581;54;20438;-77
2022/08/17 02:10:35;;;;;;;;;;;;;;;20.42;59.85;99155.06;1085042;54;19958;-75
2022/08/17 02:11:37;;;;;;;;;;;;;;;20.44;59.64;99154.81;1085205;54;19947;-77
2022/08/17 02:12:41;;;;;;;;;;;;;;;20.42;59.47;99155.06;1085538;54;19947;-76
2022/08/17 02:13:42;;;;;;;;;;;;;;;20.41;59.59;99150.69;1085226;54;20514;-76
2022/08/17 02:14:46;;;;;;;;;;;;;;;20.45;59.10;99159.19;1085495;54;20065;-76
2022/08/17 02:15:47;;;;;;;;;;;;;;;20.41;59.86;99164.25;1085129;54;19969;-77
2022/08/17 02:16:51;;;;;;;;;;;;;;;20.36;59.69;99154.09;1085952;31;20497;-77
2022/08/17 02:17:52;;;;;;;;;;;;;;;20.33;60.06;99157.25;1085313;54;19938;-77
2022/08/17 02:18:56;;;;;;;;;;;;;;;20.33;59.96;99162.69;1085402;54;19973;-77
2022/08/17 02:19:57;;;;;;;;;;;;;;;20.34;59.73;99156.19;1085691;54;19947;-76
2022/08/17 02:21:01;;;;;;;;;;;;;;;20.32;59.93;99150.16;1085082;54;19950;-76
2022/08/17 02:22:02;;;;;;;;;;;;;;;20.33;59.57;99159.16;1085146;54;19950;-76
2022/08/17 02:23:08;;;;;;;;;;;;;;;20.34;59.51;99147.25;1085171;54;19961;-78
2022/08/17 02:24:12;;;;;;;;;;;;;;;20.35;59.72;99159.75;1086408;39;20327;-76
2022/08/17 02:25:18;;;;;;;;;;;;;;;20.33;59.53;99153.72;1085422;54;19946;-76
2022/08/17 02:26:22;;;;;;;;;;;;;;;20.29;60.20;99149.81;1085328;54;19946;-76
2022/08/17 02:27:25;;;;;;;;;;;;;;;20.31;59.69;99159.38;1084993;54;19951;-77
2022/08/17 02:28:27;;;;;;;;;;;;;;;20.34;59.52;99158.91;1085511;54;19946;-77
2022/08/17 02:29:31;;;;;;;;;;;;;;;20.35;59.35;99152.44;1085820;54;19947;-78
2022/08/17 02:30:33;;;;;;;;;;;;;;;20.38;59.42;99151.13;1085531;54;19954;-77
2022/08/17 02:31:37;;;;;;;;;;;;;;;20.40;59.28;99152.56;1085341;54;19999;-77
2022/08/17 02:32:38;;;;;;;;;;;;;;;20.42;59.30;99164.00;1085526;54;19946;-76
2022/08/17 02:33:42;;;;;;;;;;;;;;;20.41;59.45;99159.63;1085467;54;19987;-75
2022/08/17 02:34:43;;;;;;;;;;;;;;;20.38;59.27;99164.69;1085608;54;19950;-77
2022/08/17 02:35:47;;;;;;;;;;;;;;;20.39;59.19;99161.78;1085354;54;19958;-77
2022/08/17 02:36:48;;;;;;;;;;;;;;;20.41;59.54;99167.78;1085537;54;19946;-77
2022/08/17 02:37:52;;;;;;;;;;;;;;;20.39;59.71;99164.50;1086144;46;19939;-77
2022/08/17 02:38:53;;;;;;;;;;;;;;;20.36;60.50;99162.22;1085797;54;19954;-77
2022/08/17 02:39:58;;;;;;;;;;;;;;;20.35;59.86;99166.00;1086083;54;20059;-77
2022/08/17 02:40:59;;;;;;;;;;;;;;;20.32;60.04;99176.50;1086257;54;20449;-77
2022/08/17 02:42:06;;;;;;;;;;;;;;;20.34;59.84;99169.78;1086033;54;19950;-76
2022/08/17 02:43:08;;;;;;;;;;;;;;;20.28;59.74;99159.84;1085873;54;19939;-77
2022/08/17 02:44:11;;;;;;;;;;;;;;;20.30;59.87;99168.59;1085935;54;19947;-77
2022/08/17 02:45:14;;;;;;;;;;;;;;;20.32;59.80;99171.06;1086106;54;19950;-76
2022/08/17 02:46:18;;;;;;;;;;;;;;;20.33;59.41;99162.69;1086013;54;19961;-77
2022/08/17 02:47:19;;;;;;;;;;;;;;;20.34;59.73;99168.97;1086289;54;19969;-76
2022/08/17 02:48:23;;;;;;;;;;;;;;;20.35;59.93;99176.84;1085762;54;20022;-77
2022/08/17 02:49:24;;;;;;;;;;;;;;;20.16;61.88;99167.94;1086705;39;20559;-77
2022/08/17 02:50:28;;;;;;;;;;;;;;;20.07;61.94;99166.59;1085819;54;20006;-77
2022/08/17 02:51:29;;;;;;;;;;;;;;;20.08;62.14;99169.09;1085892;54;20001;-76
2022/08/17 02:52:36;;;;;;;;;;;;;;;20.13;61.81;99167.56;1085411;54;19965;-78
2022/08/17 02:53:38;;;;;;;;;;;;;;;20.13;61.73;99162.13;1085769;54;19945;-77
2022/08/17 02:54:41;;;;;;;;;;;;;;;20.18;61.07;99165.00;1085719;54;19953;-76
2022/08/17 02:55:43;;;;;;;;;;;;;;;20.18;60.99;99156.84;1085448;54;19950;-77
2022/08/17 02:56:47;;;;;;;;;;;;;;;20.15;61.00;99165.44;1085938;39;20373;-76
2022/08/17 02:57:51;;;;;;;;;;;;;;;20.18;60.65;99162.28;1085337;47;19938;-76
2022/08/17 02:58:55;;;;;;;;;;;;;;;20.14;60.43;99164.63;1085817;54;19951;-76
2022/08/17 02:59:56;;;;;;;;;;;;;;;20.18;60.50;99162.28;1085236;54;19967;-77
2022/08/17 03:01:00;;;;;;;;;;;;;;;20.19;60.01;99167.47;1085401;54;19950;-78
2022/08/17 03:02:01;;;;;;;;;;;;;;;20.20;60.17;99168.31;1085521;54;19954;-78
2022/08/17 03:03:06;;;;;;;;;;;;;;;20.21;60.07;99169.97;1085318;54;19973;-79
2022/08/17 03:04:08;;;;;;;;;;;;;;;20.20;59.82;99160.97;1085408;54;19961;-77
2022/08/17 03:05:13;;;;;;;;;;;;;;;20.20;60.06;99162.88;1085451;54;19974;-78
2022/08/17 03:06:16;;;;;;;;;;;;;;;20.19;60.25;99161.22;1085593;54;19939;-78
2022/08/17 03:07:19;;;;;;;;;;;;;;;20.18;60.46;99165.00;1085484;54;19955;-77
2022/08/17 03:08:22;;;;;;;;;;;;;;;20.23;60.24;99165.13;1086879;39;20299;-79
2022/08/17 03:09:24;;;;;;;;;;;;;;;20.24;59.96;99164.06;1086686;54;19950;-77
2022/08/17 03:10:28;;;;;;;;;;;;;;;20.28;60.14;99159.84;1086526;54;19943;-78
2022/08/17 03:11:29;;;;;;;;;;;;;;;20.19;60.53;99167.47;1086695;54;19957;-78
2022/08/17 03:12:34;;;;;;;;;;;;;;;20.06;61.97;99170.38;1086552;54;19935;-77
2022/08/17 03:13:38;;;;;;;;;;;;;;;19.94;62.03;99171.13;1089358;39;20354;-78
2022/08/17 03:14:43;;;;;;;;;;;;;;;19.92;62.04;99177.84;1086936;46;19973;-78
2022/08/17 03:15:45;;;;;;;;;;;;;;;19.76;63.13;99173.81;1086373;54;20010;-77
2022/08/17 03:16:49;;;;;;;;;;;;;;;19.70;63.24;99174.72;1086848;54;19939;-78
2022/08/17 03:17:51;;;;;;;;;;;;;;;19.63;63.71;99180.22;1087795;39;20428;-78
2022/08/17 03:18:55;;;;;;;;;;;;;;;19.53;64.17;99185.34;1086021;54;19933;-78
2022/08/17 03:19:57;;;;;;;;;;;;;;;19.53;64.10;99172.59;1085517;54;19950;-79
2022/08/17 03:21:03;;;;;;;;;;;;;;;19.51;64.28;99180.13;1085475;54;19938;-77
2022/08/17 03:22:04;;;;;;;;;;;;;;;19.43;65.03;99172.28;1086342;39;20397;-78
2022/08/17 03:23:07;;;;;;;;;;;;;;;19.39;65.65;99182.75;1085463;54;19938;-78
2022/08/17 03:24:09;;;;;;;;;;;;;;;19.43;65.49;99178.56;1085658;54;19938;-77
2022/08/17 03:25:14;;;;;;;;;;;;;;;19.48;65.20;99172.47;1085715;54;19946;-78
2022/08/17 03:26:15;;;;;;;;;;;;;;;19.52;64.60;99172.84;1085699;54;19972;-77
2022/08/17 03:27:19;;;;;;;;;;;;;;;19.56;64.58;99172.16;1089720;39;20342;-77
2022/08/17 03:28:21;;;;;;;;;;;;;;;19.57;64.38;99178.41;1085467;54;19946;-77
2022/08/17 03:29:27;;;;;;;;;;;;;;;19.53;64.58;99178.03;1086216;54;19950;-79
2022/08/17 03:30:28;;;;;;;;;;;;;;;19.48;64.59;99176.00;1085770;54;19943;-78
2022/08/17 03:31:32;;;;;;;;;;;;;;;19.44;64.92;99177.50;1086389;39;20367;-77
2022/08/17 03:32:36;;;;;;;;;;;;;;;19.41;64.89;99183.38;1085441;54;20026;-79
2022/08/17 03:33:40;;;;;;;;;;;;;;;19.37;65.05;99176.72;1085698;54;19954;-78
2022/08/17 03:34:41;;;;;;;;;;;;;;;19.34;65.10;99177.19;1086083;54;19946;-78
2022/08/17 03:35:45;;;;;;;;;;;;;;;19.34;65.12;99188.03;1085755;54;19957;-77
2022/08/17 03:36:49;;;;;;;;;;;;;;;19.36;64.91;99185.09;1085760;54;19951;-78
2022/08/17 03:37:50;;;;;;;;;;;;;;;19.39;64.75;99177.34;1085529;54;19951;-79
2022/08/17 03:38:54;;;;;;;;;;;;;;;19.43;64.63;99185.84;1085445;54;19951;-80
2022/08/17 03:39:55;;;;;;;;;;;;;;;19.51;64.45;99176.59;1085514;54;19962;-78
2022/08/17 03:40:59;;;;;;;;;;;;;;;19.60;64.01;99177.97;1086124;39;20515;-78
2022/08/17 03:42:01;;;;;;;;;;;;;;;19.69;63.40;99178.50;1085672;54;19950;-79
2022/08/17 03:43:06;;;;;;;;;;;;;;;19.66;63.43;99173.53;1086085;54;20010;-78
2022/08/17 03:44:09;;;;;;;;;;;;;;;19.62;63.49;99181.28;1086212;54;19954;-80
2022/08/17 03:45:14;;;;;;;;;;;;;;;19.58;63.87;99172.78;1086181;54;19954;-78
2022/08/17 03:57:47;;;;;;;;;;;;;;;19.21;64.88;99183.56;1086341;54;19971;-78
2022/08/17 03:58:49;;;;;;;;;;;;;;;19.17;64.84;99188.59;1086068;54;19946;-79
2022/08/17 03:59:53;;;;;;;;;;;;;;;19.11;64.92;99189.47;1085568;54;20038;-78
2022/08/17 04:00:56;;;;;;;;;;;;;;;19.06;65.38;99185.78;1086252;46;19946;-78
2022/08/17 04:02:03;;;;;;;;;;;;;;;19.05;65.38;99184.94;1086130;54;19946;-78
2022/08/17 04:03:05;;;;;;;;;;;;;;;18.96;65.53;99186.28;1087606;39;20361;-79
2022/08/17 04:04:09;;;;;;;;;;;;;;;18.85;65.81;99185.91;1085836;54;19953;-78
2022/08/17 04:05:10;;;;;;;;;;;;;;;18.87;65.79;99188.38;1086128;54;19950;-79
2022/08/17 04:06:14;;;;;;;;;;;;;;;18.95;65.76;99180.03;1085476;54;19946;-79
2022/08/17 04:07:15;;;;;;;;;;;;;;;18.96;65.20;99187.09;1086126;46;20026;-79
2022/08/17 04:08:19;;;;;;;;;;;;;;;18.90;65.16;99192.53;1085556;54;19947;-78
2022/08/17 04:09:20;;;;;;;;;;;;;;;18.83;65.53;99196.13;1085662;54;20477;-78
2022/08/17 04:10:25;;;;;;;;;;;;;;;18.80;65.18;99193.84;1085913;54;19954;-78
2022/08/17 04:11:26;;;;;;;;;;;;;;;18.76;65.62;99203.47;1087411;39;20413;-78
2022/08/17 04:12:30;;;;;;;;;;;;;;;18.73;65.83;99203.91;1085882;54;19942;-78
2022/08/17 04:13:31;;;;;;;;;;;;;;;18.68;65.80;99203.75;1085773;54;19950;-77
2022/08/17 04:14:37;;;;;;;;;;;;;;;18.67;65.62;99207.50;1085946;54;19950;-78
2022/08/17 04:15:38;;;;;;;;;;;;;;;18.61;66.20;99211.91;1086032;54;19961;-78
2022/08/17 04:16:44;;;;;;;;;;;;;;;18.61;66.74;99206.47;1085570;54;19950;-78
2022/08/17 04:17:46;;;;;;;;;;;;;;;18.61;66.42;99206.47;1085117;54;20442;-78
2022/08/17 04:18:49;;;;;;;;;;;;;;;18.64;66.60;99213.34;1087273;39;20720;-79
2022/08/17 04:19:51;;;;;;;;;;;;;;;18.59;67.46;99207.75;1085444;54;19946;-78
2022/08/17 04:20:55;;;;;;;;;;;;;;;18.57;67.80;99212.56;1085789;54;19935;-78
2022/08/17 04:21:56;;;;;;;;;;;;;;;18.53;67.73;99215.69;1085756;54;19939;-77
2022/08/17 04:23:01;;;;;;;;;;;;;;;18.57;67.62;99216.06;1085461;54;19947;-78
2022/08/17 04:24:03;;;;;;;;;;;;;;;18.53;67.81;99214.88;1086159;54;19939;-80
2022/08/17 04:25:09;;;;;;;;;;;;;;;18.57;67.48;99220.66;1085928;54;19939;-78
2022/08/17 04:26:10;;;;;;;;;;;;;;;18.62;67.39;99218.97;1085927;54;19946;-77
2022/08/17 04:27:13;;;;;;;;;;;;;;;18.64;66.84;99221.44;1085998;54;19946;-77
2022/08/17 04:28:15;;;;;;;;;;;;;;;18.66;66.79;99216.66;1086542;54;19951;-78
2022/08/17 04:29:20;;;;;;;;;;;;;;;18.61;66.63;99227.31;1086189;54;19938;-78
2022/08/17 04:30:21;;;;;;;;;;;;;;;18.55;66.89;99229.84;1086745;39;20484;-78
2022/08/17 04:31:25;;;;;;;;;;;;;;;18.52;67.02;99229.44;1085962;54;19939;-78
2022/08/17 04:32:29;;;;;;;;;;;;;;;18.52;67.08;99230.25;1086311;54;19947;-78
2022/08/17 04:33:33;;;;;;;;;;;;;;;18.48;66.95;99233.59;1086887;54;19950;-79
2022/08/17 04:34:35;;;;;;;;;;;;;;;18.38;66.84;99251.13;1086247;54;19939;-80
2022/08/17 04:35:40;;;;;;;;;;;;;;;18.38;66.83;99250.31;1086705;54;20424;-79
2022/08/17 04:36:41;;;;;;;;;;;;;;;18.39;66.86;99252.00;1086626;54;19945;-77
2022/08/17 04:37:44;;;;;;;;;;;;;;;18.40;66.86;99256.34;1085994;54;19954;-79
2022/08/17 04:38:46;;;;;;;;;;;;;;;18.34;67.34;99266.16;1086571;54;19951;-79
2022/08/17 04:42:05;;;;;;;;;;;;;;;18.21;68.08;99275.16;1085986;54;19943;-76
2022/08/17 04:42:27;;;;;;;;;;;;;;;18.13;68.97;99266.44;1085925;54;19986;-78
2022/08/17 04:43:29;;;;;;;;;;;;;;;18.21;68.59;99256.22;1085844;54;20434;-78
2022/08/17 04:44:33;;;;;;;;;;;;;;;18.29;68.28;99255.13;1086117;54;19938;-78
2022/08/17 04:45:37;;;;;;;;;;;;;;;18.27;68.04;99259.09;1086037;39;20373;-79
2022/08/17 04:46:41;;;;;;;;;;;;;;;18.39;67.75;99254.69;1087437;46;20481;-82
2022/08/17 04:47:44;;;;;;;;;;;;;;;18.48;67.11;99260.66;1087076;54;20434;-81
2022/08/17 04:48:49;;;;;;;;;;;;;;;18.42;67.41;99265.06;1085791;54;19962;-78
2022/08/17 04:49:52;;;;;;;;;;;;;;;18.33;67.47;99269.91;1086502;46;19953;-78
2022/08/17 04:50:56;;;;;;;;;;;;;;;18.38;67.14;99266.56;1085741;54;19939;-79
2022/08/17 04:52:00;;;;;;;;;;;;;;;18.49;66.75;99268.59;1085755;54;19939;-78
2022/08/17 04:53:01;;;;;;;;;;;;;;;18.58;66.68;99260.22;1085411;54;19938;-77
2022/08/17 04:54:07;;;;;;;;;;;;;;;18.63;66.21;99258.53;1084949;54;19992;-79
2022/08/17 04:55:08;;;;;;;;;;;;;;;18.62;65.75;99274.97;1085526;54;19953;-78
2022/08/17 04:56:14;;;;;;;;;;;;;;;18.53;66.37;99274.41;1086649;54;19973;-80
2022/08/17 04:57:18;;;;;;;;;;;;;;;18.52;66.52;99281.66;1086611;54;19939;-79
2022/08/17 04:58:19;;;;;;;;;;;;;;;18.53;66.39;99275.22;1086875;54;20430;-80
2022/08/17 04:59:23;;;;;;;;;;;;;;;18.62;66.08;99277.66;1088689;46;19966;-81
2022/08/17 05:00:24;;;;;;;;;;;;;;;18.70;65.76;99280.97;1087587;54;20035;-78
2022/08/17 05:01:30;;;;;;;;;;;;;;;18.75;65.68;99277.63;1086913;54;19939;-77
2022/08/17 05:02:31;;;;;;;;;;;;;;;18.80;64.87;99279.66;1087789;46;19942;-78
2022/08/17 05:03:37;;;;;;;;;;;;;;;18.71;65.54;99270.97;1087540;54;19942;-78
2022/08/17 05:04:41;;;;;;;;;;;;;;;18.66;65.24;99273.50;1087744;54;19942;-79
2022/08/17 05:05:48;;;;;;;;;;;;;;;18.71;65.66;99268.25;1087722;54;19950;-79
2022/08/17 05:06:52;;;;;;;;;;;;;;;18.60;67.08;99286.00;1087006;54;19954;-80
2022/08/17 05:07:55;;;;;;;;;;;;;;;18.69;66.25;99290.13;1089240;46;19959;-82
2022/08/17 05:08:59;;;;;;;;;;;;;;;18.74;66.65;99286.78;1087224;54;19946;-77
2022/08/17 05:10:00;;;;;;;;;;;;;;;18.78;66.39;99279.91;1086991;54;20492;-79
2022/08/17 05:11:04;;;;;;;;;;;;;;;18.82;66.41;99275.69;1087081;54;19958;-77
2022/08/17 05:12:06;;;;;;;;;;;;;;;18.92;65.67;99287.91;1086835;54;20553;-77
2022/08/17 05:13:11;;;;;;;;;;;;;;;18.99;65.35;99273.31;1086982;54;20541;-78
2022/08/17 05:14:15;;;;;;;;;;;;;;;19.03;65.04;99273.72;1086850;46;19974;-78
2022/08/17 05:15:16;;;;;;;;;;;;;;;19.06;64.82;99267.88;1087110;54;19955;-77
2022/08/17 05:16:20;;;;;;;;;;;;;;;19.03;65.06;99279.13;1087593;54;19977;-79
2022/08/17 05:17:23;;;;;;;;;;;;;;;19.07;64.71;99277.66;1088222;39;20436;-80
2022/08/17 05:18:27;;;;;;;;;;;;;;;19.14;64.66;99283.00;1087185;54;20437;-80
2022/08/17 05:19:31;;;;;;;;;;;;;;;19.21;64.31;99281.09;1086643;54;19973;-79
2022/08/17 05:20:35;;;;;;;;;;;;;;;19.26;64.36;99272.31;1087930;39;20339;-78
2022/08/17 05:21:39;;;;;;;;;;;;;;;19.27;64.07;99269.38;1085977;54;19947;-78
2022/08/17 05:22:48;;;;;;;;;;;;;;;19.30;63.81;99268.94;1086235;54;19946;-79
2022/08/17 05:23:51;;;;;;;;;;;;;;;19.37;63.76;99270.75;1086900;54;19939;-80
2022/08/17 05:24:53;;;;;;;;;;;;;;;19.38;64.08;99269.69;1085714;54;20426;-78
2022/08/17 05:25:57;;;;;;;;;;;;;;;19.37;63.96;99268.84;1087714;39;20448;-79
2022/08/17 05:26:58;;;;;;;;;;;;;;;19.44;63.49;99264.22;1087243;47;19971;-78
2022/08/17 05:28:04;;;;;;;;;;;;;;;19.52;63.44;99260.38;1087548;54;20022;-79
2022/08/17 05:29:05;;;;;;;;;;;;;;;19.58;63.00;99264.09;1087428;54;19954;-80
2022/08/17 05:30:10;;;;;;;;;;;;;;;19.64;63.23;99268.63;1087131;54;19958;-78
2022/08/17 05:31:12;;;;;;;;;;;;;;;19.72;63.10;99262.94;1087288;54;19946;-79
2022/08/17 05:32:19;;;;;;;;;;;;;;;19.80;62.47;99259.91;1087092;54;19938;-80
2022/08/17 05:33:24;;;;;;;;;;;;;;;19.85;62.21;99263.81;1087619;54;19967;-77
2022/08/17 05:34:28;;;;;;;;;;;;;;;19.91;62.21;99260.25;1087152;54;19946;-77
2022/08/17 05:35:34;;;;;;;;;;;;;;;19.87;62.42;99261.75;1087022;54;19939;-77
2022/08/17 05:36:39;;;;;;;;;;;;;;;19.87;62.21;99264.47;1087372;54;20762;-78
2022/08/17 05:37:40;;;;;;;;;;;;;;;19.91;62.23;99258.38;1086103;54;19947;-77
2022/08/17 05:38:44;;;;;;;;;;;;;;;19.97;62.18;99255.81;1085994;54;19946;-77
2022/08/17 05:39:45;;;;;;;;;;;;;;;19.95;61.80;99259.59;1085876;54;19947;-76
2022/08/17 05:40:49;;;;;;;;;;;;;;;19.77;62.32;99251.41;1086115;54;19946;-77
2022/08/17 05:41:53;;;;;;;;;;;;;;;19.85;62.43;99258.41;1085895;54;19969;-77
2022/08/17 05:43:03;;;;;;;;;;;;;;;19.95;62.10;99253.31;1086022;54;19951;-77